sensor_id;sensor_type;location;lat;lon;timestamp;pressure;altitude;pressure_sealevel;temperature;humidity
76378;BME280;65200;49.500;8.654;2023-07-31T00:00:22;100399.22;;;18.58;63.39
76378;BME280;65200;49.500;8.654;2023-07-31T00:02:48;100407.59;;;18.57;63.90
76378;BME280;65200;49.500;8.654;2023-07-31T00:05:15;100416.53;;;18.57;63.61
76378;BME280;65200;49.500;8.654;2023-07-31T00:07:43;100414.91;;;18.56;63.93
76378;BME280;65200;49.500;8.654;2023-07-31T00:10:10;100406.06;;;18.49;64.22
76378;BME280;65200;49.500;8.654;2023-07-31T00:12:38;100405.13;;;18.55;65.12
76378;BME280;65200;49.500;8.654;2023-07-31T00:15:05;100403.56;;;18.59;64.34
76378;BME280;65200;49.500;8.654;2023-07-31T00:17:31;100404.63;;;18.58;64.25
76378;BME280;65200;49.500;8.654;2023-07-31T00:19:58;100407.50;;;18.52;64.88
76378;BME280;65200;49.500;8.654;2023-07-31T00:22:24;100403.47;;;18.54;63.60
76378;BME280;65200;49.500;8.654;2023-07-31T00:24:52;100406.91;;;18.50;64.13
76378;BME280;65200;49.500;8.654;2023-07-31T00:27:19;100405.25;;;18.49;64.24
76378;BME280;65200;49.500;8.654;2023-07-31T00:29:45;100400.28;;;18.46;64.52
76378;BME280;65200;49.500;8.654;2023-07-31T00:32:12;100393.94;;;18.40;64.39
76378;BME280;65200;49.500;8.654;2023-07-31T00:34:38;100395.84;;;18.40;64.19
76378;BME280;65200;49.500;8.654;2023-07-31T00:37:05;100401.59;;;18.43;64.82
76378;BME280;65200;49.500;8.654;2023-07-31T00:39:34;100388.53;;;18.40;63.42
76378;BME280;65200;49.500;8.654;2023-07-31T00:42:02;100401.00;;;18.41;65.44
76378;BME280;65200;49.500;8.654;2023-07-31T00:44:28;100400.53;;;18.44;64.63
76378;BME280;65200;49.500;8.654;2023-07-31T00:46:56;100395.44;;;18.36;64.91
76378;BME280;65200;49.500;8.654;2023-07-31T00:49:23;100398.53;;;18.40;65.29
76378;BME280;65200;49.500;8.654;2023-07-31T00:51:50;100388.38;;;18.35;65.22
76378;BME280;65200;49.500;8.654;2023-07-31T00:54:16;100385.09;;;18.33;65.37
76378;BME280;65200;49.500;8.654;2023-07-31T00:56:45;100372.72;;;18.26;66.06
76378;BME280;65200;49.500;8.654;2023-07-31T00:59:15;100384.16;;;18.28;65.29
76378;BME280;65200;49.500;8.654;2023-07-31T01:01:44;100372.72;;;18.26;65.59
76378;BME280;65200;49.500;8.654;2023-07-31T01:04:11;100372.38;;;18.22;66.33
76378;BME280;65200;49.500;8.654;2023-07-31T01:06:44;100370.75;;;18.21;65.39
76378;BME280;65200;49.500;8.654;2023-07-31T01:09:18;100373.44;;;18.21;65.00
76378;BME280;65200;49.500;8.654;2023-07-31T01:11:48;100358.47;;;18.19;64.95
76378;BME280;65200;49.500;8.654;2023-07-31T01:14:19;100351.19;;;18.08;65.53
76378;BME280;65200;49.500;8.654;2023-07-31T01:16:46;100368.72;;;18.17;65.69
76378;BME280;65200;49.500;8.654;2023-07-31T01:19:14;100373.22;;;18.11;66.21
76378;BME280;65200;49.500;8.654;2023-07-31T01:22:03;100377.09;;;18.15;66.22
76378;BME280;65200;49.500;8.654;2023-07-31T01:24:41;100363.19;;;18.12;65.42
76378;BME280;65200;49.500;8.654;2023-07-31T01:27:21;100362.38;;;18.11;66.73
76378;BME280;65200;49.500;8.654;2023-07-31T01:29:55;100361.44;;;18.06;67.10
76378;BME280;65200;49.500;8.654;2023-07-31T01:32:23;100363.91;;;18.07;67.49
76378;BME280;65200;49.500;8.654;2023-07-31T01:34:51;100356.25;;;18.04;66.68
76378;BME280;65200;49.500;8.654;2023-07-31T01:37:18;100355.66;;;18.02;66.62
76378;BME280;65200;49.500;8.654;2023-07-31T01:39:44;100356.25;;;18.04;66.18
76378;BME280;65200;49.500;8.654;2023-07-31T01:42:11;100356.38;;;17.98;67.37
76378;BME280;65200;49.500;8.654;2023-07-31T01:44:38;100361.31;;;18.01;66.04
76378;BME280;65200;49.500;8.654;2023-07-31T01:47:05;100351.91;;;18.03;67.76
76378;BME280;65200;49.500;8.654;2023-07-31T01:49:32;100355.09;;;18.00;67.68
76378;BME280;65200;49.500;8.654;2023-07-31T01:51:58;100356.63;;;17.96;66.75
76378;BME280;65200;49.500;8.654;2023-07-31T01:54:25;100354.50;;;17.98;66.96
76378;BME280;65200;49.500;8.654;2023-07-31T01:56:51;100347.88;;;17.94;67.50
76378;BME280;65200;49.500;8.654;2023-07-31T01:59:17;100349.91;;;17.99;65.77
76378;BME280;65200;49.500;8.654;2023-07-31T02:01:45;100346.97;;;18.00;65.98
76378;BME280;65200;49.500;8.654;2023-07-31T02:04:12;100337.41;;;17.98;66.50
76378;BME280;65200;49.500;8.654;2023-07-31T02:06:38;100343.06;;;17.96;67.25
76378;BME280;65200;49.500;8.654;2023-07-31T02:09:05;100334.94;;;17.96;65.99
76378;BME280;65200;49.500;8.654;2023-07-31T02:11:31;100337.16;;;17.99;66.72
76378;BME280;65200;49.500;8.654;2023-07-31T02:13:58;100333.03;;;17.97;67.17
76378;BME280;65200;49.500;8.654;2023-07-31T02:16:24;100324.44;;;18.00;67.41
76378;BME280;65200;49.500;8.654;2023-07-31T02:18:52;100326.19;;;17.94;66.19
76378;BME280;65200;49.500;8.654;2023-07-31T02:21:19;100317.03;;;17.95;67.61
76378;BME280;65200;49.500;8.654;2023-07-31T02:23:45;100319.25;;;17.98;67.80
76378;BME280;65200;49.500;8.654;2023-07-31T02:26:11;100308.41;;;17.98;66.35
76378;BME280;65200;49.500;8.654;2023-07-31T02:28:37;100317.50;;;17.92;67.29
76378;BME280;65200;49.500;8.654;2023-07-31T02:31:03;100314.78;;;17.92;67.48
76378;BME280;65200;49.500;8.654;2023-07-31T02:33:30;100308.88;;;17.95;67.16
76378;BME280;65200;49.500;8.654;2023-07-31T02:35:57;100320.63;;;18.01;65.96
76378;BME280;65200;49.500;8.654;2023-07-31T02:38:24;100310.41;;;17.91;67.09
76378;BME280;65200;49.500;8.654;2023-07-31T02:40:50;100312.75;;;17.99;65.73
76378;BME280;65200;49.500;8.654;2023-07-31T02:43:17;100316.06;;;17.90;68.34
76378;BME280;65200;49.500;8.654;2023-07-31T02:45:43;100317.38;;;17.87;67.33
76378;BME280;65200;49.500;8.654;2023-07-31T02:48:10;100309.72;;;17.84;67.20
76378;BME280;65200;49.500;8.654;2023-07-31T02:50:36;100315.13;;;17.84;67.17
76378;BME280;65200;49.500;8.654;2023-07-31T02:53:04;100307.81;;;17.85;67.85
76378;BME280;65200;49.500;8.654;2023-07-31T02:55:30;100314.31;;;17.84;66.99
76378;BME280;65200;49.500;8.654;2023-07-31T02:57:57;100312.22;;;17.86;68.02
76378;BME280;65200;49.500;8.654;2023-07-31T03:00:24;100310.53;;;17.85;66.19
76378;BME280;65200;49.500;8.654;2023-07-31T03:02:50;100307.81;;;17.85;67.54
76378;BME280;65200;49.500;8.654;2023-07-31T03:05:17;100306.66;;;17.81;67.80
76378;BME280;65200;49.500;8.654;2023-07-31T03:07:43;100309.03;;;17.77;66.37
76378;BME280;65200;49.500;8.654;2023-07-31T03:10:11;100296.53;;;17.64;67.38
76378;BME280;65200;49.500;8.654;2023-07-31T03:12:38;100307.59;;;17.74;68.25
76378;BME280;65200;49.500;8.654;2023-07-31T03:15:05;100304.66;;;17.76;67.64
76378;BME280;65200;49.500;8.654;2023-07-31T03:17:31;100310.78;;;17.71;68.62
76378;BME280;65200;49.500;8.654;2023-07-31T03:19:58;100311.63;;;17.72;67.66
76378;BME280;65200;49.500;8.654;2023-07-31T03:22:24;100303.72;;;17.70;67.66
76378;BME280;65200;49.500;8.654;2023-07-31T03:24:51;100302.66;;;17.71;68.22
76378;BME280;65200;49.500;8.654;2023-07-31T03:27:18;100313.75;;;17.70;68.61
76378;BME280;65200;49.500;8.654;2023-07-31T03:29:45;100311.16;;;17.75;68.87
76378;BME280;65200;49.500;8.654;2023-07-31T03:32:11;100314.81;;;17.69;68.34
76378;BME280;65200;49.500;8.654;2023-07-31T03:34:38;100310.31;;;17.74;67.45
76378;BME280;65200;49.500;8.654;2023-07-31T03:37:05;100298.66;;;17.74;67.74
76378;BME280;65200;49.500;8.654;2023-07-31T03:39:31;100301.25;;;17.69;68.98
76378;BME280;65200;49.500;8.654;2023-07-31T03:41:58;100306.69;;;17.69;68.33
76378;BME280;65200;49.500;8.654;2023-07-31T03:44:26;100307.84;;;17.73;67.74
76378;BME280;65200;49.500;8.654;2023-07-31T03:46:52;100290.66;;;17.67;67.55
76378;BME280;65200;49.500;8.654;2023-07-31T03:49:19;100282.66;;;17.61;69.80
76378;BME280;65200;49.500;8.654;2023-07-31T03:51:45;100296.53;;;17.64;67.67
76378;BME280;65200;49.500;8.654;2023-07-31T03:54:12;100296.19;;;17.72;68.63
76378;BME280;65200;49.500;8.654;2023-07-31T03:56:39;100297.84;;;17.62;68.60
76378;BME280;65200;49.500;8.654;2023-07-31T03:59:05;100307.63;;;17.63;68.51
76378;BME280;65200;49.500;8.654;2023-07-31T04:01:33;100298.69;;;17.62;67.66
76378;BME280;65200;49.500;8.654;2023-07-31T04:03:59;100305.25;;;17.66;67.98
76378;BME280;65200;49.500;8.654;2023-07-31T04:06:26;100307.63;;;17.63;67.66
76378;BME280;65200;49.500;8.654;2023-07-31T04:08:52;100295.63;;;17.59;68.52
76378;BME280;65200;49.500;8.654;2023-07-31T04:11:19;100298.69;;;17.62;68.19
76378;BME280;65200;49.500;8.654;2023-07-31T04:13:45;100293.50;;;17.61;69.69
76378;BME280;65200;49.500;8.654;2023-07-31T04:16:11;100293.50;;;17.61;69.28
76378;BME280;65200;49.500;8.654;2023-07-31T04:18:39;100304.66;;;17.64;69.18
76378;BME280;65200;49.500;8.654;2023-07-31T04:21:06;100309.75;;;17.61;67.21
76378;BME280;65200;49.500;8.654;2023-07-31T04:23:32;100319.53;;;17.62;67.55
76378;BME280;65200;49.500;8.654;2023-07-31T04:25:59;100305.50;;;17.65;67.73
76378;BME280;65200;49.500;8.654;2023-07-31T04:28:25;100304.78;;;17.58;69.05
76378;BME280;65200;49.500;8.654;2023-07-31T04:30:52;100301.50;;;17.56;67.80
76378;BME280;65200;49.500;8.654;2023-07-31T04:33:18;100304.34;;;17.61;67.39
76378;BME280;65200;49.500;8.654;2023-07-31T04:35:50;100304.66;;;17.64;67.39
76378;BME280;65200;49.500;8.654;2023-07-31T04:38:18;100302.66;;;17.60;68.10
76378;BME280;65200;49.500;8.654;2023-07-31T04:40:44;100297.38;;;17.53;69.35
76378;BME280;65200;49.500;8.654;2023-07-31T04:43:11;100297.13;;;17.55;68.14
76378;BME280;65200;49.500;8.654;2023-07-31T04:45:37;100291.72;;;17.55;68.67
76378;BME280;65200;49.500;8.654;2023-07-31T04:48:04;100295.13;;;17.50;69.03
76378;BME280;65200;49.500;8.654;2023-07-31T04:50:30;100287.72;;;17.57;70.23
76378;BME280;65200;49.500;8.654;2023-07-31T04:52:58;100291.84;;;17.60;68.30
76378;BME280;65200;49.500;8.654;2023-07-31T04:55:25;100290.69;;;17.56;68.67
76378;BME280;65200;49.500;8.654;2023-07-31T04:57:51;100282.28;;;17.69;68.22
76378;BME280;65200;49.500;8.654;2023-07-31T05:00:18;100293.13;;;17.69;68.19
76378;BME280;65200;49.500;8.654;2023-07-31T05:02:44;100284.16;;;17.68;69.16
76378;BME280;65200;49.500;8.654;2023-07-31T05:05:11;100289.22;;;17.65;68.06
76378;BME280;65200;49.500;8.654;2023-07-31T05:07:37;100281.69;;;17.67;67.86
76378;BME280;65200;49.500;8.654;2023-07-31T05:10:06;100282.06;;;17.70;69.28
76378;BME280;65200;49.500;8.654;2023-07-31T05:12:33;100295.47;;;17.77;69.53
76378;BME280;65200;49.500;8.654;2023-07-31T05:18:21;100287.44;;;17.82;68.35
76378;BME280;65200;49.500;8.654;2023-07-31T05:20:48;100284.25;;;17.85;68.53
76378;BME280;65200;49.500;8.654;2023-07-31T05:23:14;100285.22;;;17.79;68.82
76378;BME280;65200;49.500;8.654;2023-07-31T05:25:42;100293.00;;;17.75;69.76
76378;BME280;65200;49.500;8.654;2023-07-31T05:28:08;100290.44;;;17.69;69.06
76378;BME280;65200;49.500;8.654;2023-07-31T05:30:35;100284.66;;;17.65;68.44
76378;BME280;65200;49.500;8.654;2023-07-31T05:33:01;100284.75;;;17.70;69.46
76378;BME280;65200;49.500;8.654;2023-07-31T05:35:28;100289.34;;;17.70;69.41
76378;BME280;65200;49.500;8.654;2023-07-31T05:37:54;100280.50;;;17.63;69.97
76378;BME280;65200;49.500;8.654;2023-07-31T05:40:20;100273.81;;;17.65;69.69
76378;BME280;65200;49.500;8.654;2023-07-31T05:42:48;100277.22;;;17.72;70.27
76378;BME280;65200;49.500;8.654;2023-07-31T05:45:15;100287.69;;;17.81;68.85
76378;BME280;65200;49.500;8.654;2023-07-31T05:47:41;100280.97;;;17.83;69.27
76378;BME280;65200;49.500;8.654;2023-07-31T05:50:08;100290.28;;;17.87;70.80
76378;BME280;65200;49.500;8.654;2023-07-31T05:52:35;100285.91;;;17.86;68.07
76378;BME280;65200;49.500;8.654;2023-07-31T05:55:01;100280.81;;;17.90;69.29
76378;BME280;65200;49.500;8.654;2023-07-31T05:57:28;100288.00;;;17.84;68.59
76378;BME280;65200;49.500;8.654;2023-07-31T05:59:56;100285.31;;;17.84;68.41
76378;BME280;65200;49.500;8.654;2023-07-31T06:02:22;100273.91;;;17.82;68.16
76378;BME280;65200;49.500;8.654;2023-07-31T06:04:49;100282.00;;;17.94;68.79
76378;BME280;65200;49.500;8.654;2023-07-31T06:07:15;100276.47;;;17.89;69.19
76378;BME280;65200;49.500;8.654;2023-07-31T06:09:41;100285.66;;;17.88;69.89
76378;BME280;65200;49.500;8.654;2023-07-31T06:12:08;100270.22;;;17.88;69.75
76378;BME280;65200;49.500;8.654;2023-07-31T06:14:35;100277.41;;;17.83;69.34
76378;BME280;65200;49.500;8.654;2023-07-31T06:17:03;100269.88;;;17.85;70.38
76378;BME280;65200;49.500;8.654;2023-07-31T06:19:29;100269.16;;;17.89;69.67
76378;BME280;65200;49.500;8.654;2023-07-31T06:21:56;100268.22;;;17.95;68.15
76378;BME280;65200;49.500;8.654;2023-07-31T06:24:22;100275.22;;;18.08;68.11
76378;BME280;65200;49.500;8.654;2023-07-31T06:26:49;100263.84;;;18.22;67.79
76378;BME280;65200;49.500;8.654;2023-07-31T06:29:16;100273.47;;;18.41;68.70
76378;BME280;65200;49.500;8.654;2023-07-31T06:31:42;100259.09;;;18.41;67.13
76378;BME280;65200;49.500;8.654;2023-07-31T06:34:10;100257.81;;;18.60;67.42
76378;BME280;65200;49.500;8.654;2023-07-31T06:36:36;100253.13;;;18.88;66.47
76378;BME280;65200;49.500;8.654;2023-07-31T06:39:03;100263.25;;;19.09;66.15
76378;BME280;65200;49.500;8.654;2023-07-31T06:41:30;100255.91;;;19.27;65.42
76378;BME280;65200;49.500;8.654;2023-07-31T06:43:56;100249.91;;;18.91;66.07
76378;BME280;65200;49.500;8.654;2023-07-31T06:46:23;100249.25;;;18.68;66.02
76378;BME280;65200;49.500;8.654;2023-07-31T06:48:49;100258.88;;;18.75;67.06
76378;BME280;65200;49.500;8.654;2023-07-31T06:51:17;100258.63;;;18.77;67.28
76378;BME280;65200;49.500;8.654;2023-07-31T06:53:44;100256.47;;;18.62;67.10
76378;BME280;65200;49.500;8.654;2023-07-31T06:56:10;100259.28;;;18.67;67.41
76378;BME280;65200;49.500;8.654;2023-07-31T06:58:37;100261.03;;;18.73;68.19
76378;BME280;65200;49.500;8.654;2023-07-31T07:01:03;100268.69;;;18.76;67.28
76378;BME280;65200;49.500;8.654;2023-07-31T07:03:30;100267.03;;;18.75;67.03
76378;BME280;65200;49.500;8.654;2023-07-31T07:05:57;100267.63;;;18.94;67.42
76378;BME280;65200;49.500;8.654;2023-07-31T07:08:25;100267.63;;;19.10;67.02
76378;BME280;65200;49.500;8.654;2023-07-31T07:10:51;100263.84;;;19.11;66.36
76378;BME280;65200;49.500;8.654;2023-07-31T07:13:19;100266.53;;;19.11;66.45
76378;BME280;65200;49.500;8.654;2023-07-31T07:15:47;100251.72;;;19.19;65.72
76378;BME280;65200;49.500;8.654;2023-07-31T07:18:14;100250.09;;;19.35;66.37
76378;BME280;65200;49.500;8.654;2023-07-31T07:20:45;100255.44;;;19.30;65.99
76378;BME280;65200;49.500;8.654;2023-07-31T07:23:12;100258.66;;;19.43;65.48
76378;BME280;65200;49.500;8.654;2023-07-31T07:25:39;100257.22;;;19.41;65.72
76378;BME280;65200;49.500;8.654;2023-07-31T07:28:06;100259.66;;;19.59;65.55
76378;BME280;65200;49.500;8.654;2023-07-31T07:30:32;100260.44;;;19.54;64.71
76378;BME280;65200;49.500;8.654;2023-07-31T07:32:59;100266.97;;;19.20;65.46
76378;BME280;65200;49.500;8.654;2023-07-31T07:35:25;100258.81;;;19.20;65.24
76378;BME280;65200;49.500;8.654;2023-07-31T07:37:51;100250.16;;;19.23;65.60
76378;BME280;65200;49.500;8.654;2023-07-31T07:40:18;100256.81;;;19.49;65.85
76378;BME280;65200;49.500;8.654;2023-07-31T07:42:46;100254.47;;;19.57;64.76
76378;BME280;65200;49.500;8.654;2023-07-31T07:45:13;100262.00;;;19.50;64.35
76378;BME280;65200;49.500;8.654;2023-07-31T07:47:40;100257.38;;;19.51;65.16
76378;BME280;65200;49.500;8.654;2023-07-31T07:50:08;100250.81;;;19.68;65.23
76378;BME280;65200;49.500;8.654;2023-07-31T07:52:34;100250.88;;;19.73;64.26
76378;BME280;65200;49.500;8.654;2023-07-31T07:55:01;100263.72;;;19.78;63.88
76378;BME280;65200;49.500;8.654;2023-07-31T07:57:28;100258.59;;;19.60;64.06
76378;BME280;65200;49.500;8.654;2023-07-31T07:59:56;100250.63;;;19.75;64.61
76378;BME280;65200;49.500;8.654;2023-07-31T08:02:23;100251.84;;;19.84;63.55
76378;BME280;65200;49.500;8.654;2023-07-31T08:04:50;100259.31;;;19.72;64.10
76378;BME280;65200;49.500;8.654;2023-07-31T08:07:16;100244.13;;;19.76;63.96
76378;BME280;65200;49.500;8.654;2023-07-31T08:09:43;100245.47;;;19.95;64.22
76378;BME280;65200;49.500;8.654;2023-07-31T08:12:09;100242.34;;;20.08;63.87
76378;BME280;65200;49.500;8.654;2023-07-31T08:14:36;100237.88;;;19.97;63.75
76378;BME280;65200;49.500;8.654;2023-07-31T08:17:04;100234.31;;;19.96;63.61
76378;BME280;65200;49.500;8.654;2023-07-31T08:19:30;100223.78;;;20.26;62.56
76378;BME280;65200;49.500;8.654;2023-07-31T08:21:57;100232.81;;;20.90;60.65
76378;BME280;65200;49.500;8.654;2023-07-31T08:24:23;100214.38;;;21.86;58.92
76378;BME280;65200;49.500;8.654;2023-07-31T08:26:50;100214.66;;;21.84;58.01
76378;BME280;65200;49.500;8.654;2023-07-31T08:29:16;100214.47;;;22.26;56.97
76378;BME280;65200;49.500;8.654;2023-07-31T08:31:42;100208.00;;;22.92;55.65
76378;BME280;65200;49.500;8.654;2023-07-31T08:34:10;100201.44;;;22.53;54.95
76378;BME280;65200;49.500;8.654;2023-07-31T08:36:37;100201.19;;;22.69;54.49
76378;BME280;65200;49.500;8.654;2023-07-31T08:39:03;100194.88;;;22.69;56.05
76378;BME280;65200;49.500;8.654;2023-07-31T08:41:30;100193.72;;;22.35;56.72
76378;BME280;65200;49.500;8.654;2023-07-31T08:43:56;100189.97;;;22.86;54.20
76378;BME280;65200;49.500;8.654;2023-07-31T08:46:24;100184.47;;;22.41;56.38
76378;BME280;65200;49.500;8.654;2023-07-31T08:48:51;100183.88;;;21.47;57.47
76378;BME280;65200;49.500;8.654;2023-07-31T08:51:20;100186.44;;;21.17;59.76
76378;BME280;65200;49.500;8.654;2023-07-31T08:53:47;100183.44;;;20.82;59.48
76378;BME280;65200;49.500;8.654;2023-07-31T08:56:14;100180.25;;;20.90;60.85
76378;BME280;65200;49.500;8.654;2023-07-31T08:58:43;100173.44;;;20.92;59.84
76378;BME280;65200;49.500;8.654;2023-07-31T09:01:10;100171.47;;;21.19;59.56
76378;BME280;65200;49.500;8.654;2023-07-31T09:03:37;100175.88;;;21.25;59.17
76378;BME280;65200;49.500;8.654;2023-07-31T09:06:05;100160.38;;;20.94;59.22
76378;BME280;65200;49.500;8.654;2023-07-31T09:08:34;100168.44;;;20.79;59.08
76378;BME280;65200;49.500;8.654;2023-07-31T09:11:02;100172.75;;;21.07;58.87
76378;BME280;65200;49.500;8.654;2023-07-31T09:13:30;100160.75;;;21.08;58.90
76378;BME280;65200;49.500;8.654;2023-07-31T09:15:57;100160.59;;;21.24;59.71
76378;BME280;65200;49.500;8.654;2023-07-31T09:18:24;100163.22;;;21.61;57.05
76378;BME280;65200;49.500;8.654;2023-07-31T09:21:02;100170.81;;;22.36;57.17
76378;BME280;65200;49.500;8.654;2023-07-31T09:23:42;100161.03;;;22.75;54.95
76378;BME280;65200;49.500;8.654;2023-07-31T09:26:09;100156.06;;;22.77;54.84
76378;BME280;65200;49.500;8.654;2023-07-31T09:28:36;100159.38;;;22.64;55.59
76378;BME280;65200;49.500;8.654;2023-07-31T09:31:03;100157.66;;;23.13;53.38
76378;BME280;65200;49.500;8.654;2023-07-31T09:33:29;100160.69;;;23.12;53.16
76378;BME280;65200;49.500;8.654;2023-07-31T09:35:58;100151.97;;;22.89;53.68
76378;BME280;65200;49.500;8.654;2023-07-31T09:38:25;100142.41;;;22.47;55.32
76378;BME280;65200;49.500;8.654;2023-07-31T09:40:53;100149.53;;;22.73;54.11
76378;BME280;65200;49.500;8.654;2023-07-31T09:43:21;100147.09;;;22.76;55.64
76378;BME280;65200;49.500;8.654;2023-07-31T09:45:48;100135.31;;;22.76;55.06
76378;BME280;65200;49.500;8.654;2023-07-31T09:48:15;100134.19;;;23.02;54.36
76378;BME280;65200;49.500;8.654;2023-07-31T09:50:43;100125.91;;;23.37;55.25
76378;BME280;65200;49.500;8.654;2023-07-31T09:53:10;100130.03;;;23.20;54.55
76378;BME280;65200;49.500;8.654;2023-07-31T09:55:38;100137.44;;;23.14;53.77
76378;BME280;65200;49.500;8.654;2023-07-31T09:58:07;100128.13;;;23.15;51.79
76378;BME280;65200;49.500;8.654;2023-07-31T10:00:34;100123.28;;;22.92;53.71
76378;BME280;65200;49.500;8.654;2023-07-31T10:03:04;100124.06;;;23.08;53.07
76378;BME280;65200;49.500;8.654;2023-07-31T10:05:34;100127.69;;;22.73;55.13
76378;BME280;65200;49.500;8.654;2023-07-31T10:08:02;100123.00;;;22.38;55.27
76378;BME280;65200;49.500;8.654;2023-07-31T10:10:29;100114.78;;;21.93;57.03
76378;BME280;65200;49.500;8.654;2023-07-31T10:12:57;100108.25;;;21.99;56.25
76378;BME280;65200;49.500;8.654;2023-07-31T10:15:25;100117.00;;;22.06;56.69
76378;BME280;65200;49.500;8.654;2023-07-31T10:17:53;100115.53;;;21.73;56.77
76378;BME280;65200;49.500;8.654;2023-07-31T10:20:21;100107.94;;;21.81;56.80
76378;BME280;65200;49.500;8.654;2023-07-31T10:22:48;100107.44;;;21.99;56.71
76378;BME280;65200;49.500;8.654;2023-07-31T10:25:15;100107.44;;;21.99;56.64
76378;BME280;65200;49.500;8.654;2023-07-31T10:27:42;100102.53;;;22.16;55.31
76378;BME280;65200;49.500;8.654;2023-07-31T10:30:11;100099.81;;;22.16;55.48
76378;BME280;65200;49.500;8.654;2023-07-31T10:32:40;100102.28;;;22.32;54.57
76378;BME280;65200;49.500;8.654;2023-07-31T10:35:08;100093.78;;;22.19;54.00
76378;BME280;65200;49.500;8.654;2023-07-31T10:37:39;100093.25;;;22.27;55.02
76378;BME280;65200;49.500;8.654;2023-07-31T10:40:10;100091.63;;;22.56;53.79
76378;BME280;65200;49.500;8.654;2023-07-31T10:42:38;100106.91;;;22.42;54.12
76378;BME280;65200;49.500;8.654;2023-07-31T10:45:10;100098.72;;;22.27;54.63
76378;BME280;65200;49.500;8.654;2023-07-31T10:47:37;100087.25;;;22.65;54.28
76378;BME280;65200;49.500;8.654;2023-07-31T10:50:17;100076.31;;;22.70;53.44
76378;BME280;65200;49.500;8.654;2023-07-31T10:52:47;100091.91;;;22.64;53.78
76378;BME280;65200;49.500;8.654;2023-07-31T10:55:30;100082.56;;;22.80;54.34
76378;BME280;65200;49.500;8.654;2023-07-31T10:58:05;100077.88;;;23.01;52.40
76378;BME280;65200;49.500;8.654;2023-07-31T11:00:32;100093.28;;;22.57;53.51
76378;BME280;65200;49.500;8.654;2023-07-31T11:03:03;100094.91;;;22.28;54.59
76378;BME280;65200;49.500;8.654;2023-07-31T11:05:48;100083.41;;;22.16;55.80
76378;BME280;65200;49.500;8.654;2023-07-31T11:08:17;100089.72;;;22.21;55.10
76378;BME280;65200;49.500;8.654;2023-07-31T11:10:45;100082.59;;;22.15;55.75
76378;BME280;65200;49.500;8.654;2023-07-31T11:13:12;100083.72;;;22.24;56.25
76378;BME280;65200;49.500;8.654;2023-07-31T11:15:39;100085.06;;;22.32;55.79
76378;BME280;65200;49.500;8.654;2023-07-31T11:18:06;100075.50;;;22.29;55.83
76378;BME280;65200;49.500;8.654;2023-07-31T11:20:34;100056.09;;;22.51;55.33
76378;BME280;65200;49.500;8.654;2023-07-31T11:23:03;100061.72;;;23.04;53.05
76378;BME280;65200;49.500;8.654;2023-07-31T11:25:30;100053.50;;;23.09;53.30
76378;BME280;65200;49.500;8.654;2023-07-31T11:27:57;100056.34;;;23.53;52.05
76378;BME280;65200;49.500;8.654;2023-07-31T11:30:28;100063.75;;;23.53;52.28
76378;BME280;65200;49.500;8.654;2023-07-31T11:32:55;100051.22;;;23.85;51.22
76378;BME280;65200;49.500;8.654;2023-07-31T11:35:22;100058.63;;;23.36;51.93
76378;BME280;65200;49.500;8.654;2023-07-31T11:37:48;100076.81;;;22.82;54.07
76378;BME280;65200;49.500;8.654;2023-07-31T11:40:16;100069.69;;;22.96;54.90
76378;BME280;65200;49.500;8.654;2023-07-31T11:42:42;100077.94;;;22.81;54.42
76378;BME280;65200;49.500;8.654;2023-07-31T11:45:09;100065.38;;;22.35;55.42
76378;BME280;65200;49.500;8.654;2023-07-31T11:47:37;100065.66;;;22.23;55.72
76378;BME280;65200;49.500;8.654;2023-07-31T11:50:05;100055.28;;;22.15;55.79
76378;BME280;65200;49.500;8.654;2023-07-31T11:52:35;100054.50;;;22.10;55.85
76378;BME280;65200;49.500;8.654;2023-07-31T11:55:02;100053.91;;;22.43;55.88
76378;BME280;65200;49.500;8.654;2023-07-31T11:57:31;100040.25;;;22.63;54.63
76378;BME280;65200;49.500;8.654;2023-07-31T11:59:58;100034.81;;;22.63;54.26
76378;BME280;65200;49.500;8.654;2023-07-31T12:02:24;100038.56;;;22.77;54.06
76378;BME280;65200;49.500;8.654;2023-07-31T12:04:51;100030.72;;;22.65;55.32
76378;BME280;65200;49.500;8.654;2023-07-31T12:07:17;100027.16;;;22.45;56.64
76378;BME280;65200;49.500;8.654;2023-07-31T12:09:51;100012.72;;;22.34;55.78
76378;BME280;65200;49.500;8.654;2023-07-31T12:12:20;100026.66;;;22.33;55.43
76378;BME280;65200;49.500;8.654;2023-07-31T12:14:48;100020.63;;;22.36;56.41
76378;BME280;65200;49.500;8.654;2023-07-31T12:17:16;100014.63;;;22.29;57.06
76378;BME280;65200;49.500;8.654;2023-07-31T12:19:43;100013.22;;;22.31;56.14
76378;BME280;65200;49.500;8.654;2023-07-31T12:22:13;100009.16;;;22.59;56.07
76378;BME280;65200;49.500;8.654;2023-07-31T12:24:41;100005.25;;;22.80;55.89
76378;BME280;65200;49.500;8.654;2023-07-31T12:27:10;100016.19;;;22.75;55.89
76378;BME280;65200;49.500;8.654;2023-07-31T12:29:38;100005.84;;;22.67;54.89
76378;BME280;65200;49.500;8.654;2023-07-31T12:32:06;99999.28;;;22.63;56.47
76378;BME280;65200;49.500;8.654;2023-07-31T12:34:43;99990.84;;;22.54;55.00
76378;BME280;65200;49.500;8.654;2023-07-31T12:37:10;100001.44;;;22.71;55.20
76378;BME280;65200;49.500;8.654;2023-07-31T12:39:36;99997.09;;;22.70;54.79
76378;BME280;65200;49.500;8.654;2023-07-31T12:42:05;100002.56;;;22.50;55.39
76378;BME280;65200;49.500;8.654;2023-07-31T12:44:31;99990.81;;;22.49;56.26
76378;BME280;65200;49.500;8.654;2023-07-31T12:46:58;99991.09;;;22.48;55.32
76378;BME280;65200;49.500;8.654;2023-07-31T12:49:25;99983.44;;;22.50;55.42
76378;BME280;65200;49.500;8.654;2023-07-31T12:51:52;99993.59;;;22.39;53.83
76378;BME280;65200;49.500;8.654;2023-07-31T12:54:19;99999.34;;;22.33;53.82